Time;durP1;ratioP1;P1;durP2;ratioP2;P2;SDS_P1;SDS_P2;PMS_P1;PMS_P2;Temp;Humidity;BMP_temperature;BMP_pressure;BME280_temperature;BME280_humidity;BME280_pressure;Samples;Min_cycle;Max_cycle;Signal;HPM_P1;HPM_P2
2022/09/26 00:01:17;;;;;;;9.73;7.42;;;;;;;21.15;39.12;100492.69;1704325;83;21508;-74
2022/09/26 00:03:48;;;;;;;11.57;8.28;;;;;;;21.14;39.13;100497.97;1704622;83;21853;-74
2022/09/26 00:06:17;;;;;;;9.98;7.70;;;;;;;21.14;39.16;100496.59;1703887;84;21087;-74
2022/09/26 00:08:44;;;;;;;9.33;6.78;;;;;;;21.14;39.16;100496.59;1703206;83;21097;-74
2022/09/26 00:11:11;;;;;;;10.85;7.83;;;;;;;21.14;39.19;100488.28;1703011;84;21638;-74
2022/09/26 00:13:39;;;;;;;10.72;7.75;;;;;;;21.13;39.22;100480.55;1703033;83;21044;-75
2022/09/26 00:16:06;;;;;;;10.13;7.97;;;;;;;21.12;39.24;100474.80;1703440;84;21720;-75
2022/09/26 00:18:32;;;;;;;10.10;7.78;;;;;;;21.13;39.26;100482.53;1703249;83;21306;-74
2022/09/26 00:21:07;;;;;;;11.03;7.67;;;;;;;21.12;39.29;100480.87;1682854;84;21060;-75
2022/09/26 00:23:33;;;;;;;10.05;7.92;;;;;;;21.13;39.28;100479.77;1703464;83;21182;-74
2022/09/26 00:26:00;;;;;;;11.10;7.35;;;;;;;21.13;39.30;100479.77;1683056;83;21124;-75
2022/09/26 00:28:26;;;;;;;9.58;7.90;;;;;;;21.12;39.31;100480.87;1703144;83;21188;-74
2022/09/26 00:30:52;;;;;;;9.55;7.80;;;;;;;21.13;39.30;100483.92;1703859;83;21006;-74
2022/09/26 00:33:19;;;;;;;10.32;8.33;;;;;;;21.12;39.30;100484.48;1703456;82;21092;-74
2022/09/26 00:35:51;;;;;;;9.55;7.97;;;;;;;21.13;39.28;100474.23;1683599;84;21084;-74
2022/09/26 00:38:17;;;;;;;11.25;8.55;;;;;;;21.13;39.28;100470.87;1704314;83;21610;-74
2022/09/26 00:40:44;;;;;;;10.40;7.75;;;;;;;21.12;39.28;100465.13;1665252;85;21768;-74
2022/09/26 00:43:32;;;;;;;10.50;8.23;;;;;;;21.13;39.30;100475.62;1660502;83;21049;-74
2022/09/26 00:46:23;;;;;;;11.03;8.13;;;;;;;21.13;39.30;100472.85;1687797;84;21619;-74
2022/09/26 00:49:00;;;;;;;10.50;8.35;;;;;;;21.12;39.28;100469.81;1708471;83;21115;-74
2022/09/26 00:51:26;;;;;;;11.53;8.93;;;;;;;21.11;39.29;100468.98;1696589;83;21123;-74
2022/09/26 00:53:53;;;;;;;9.88;7.90;;;;;;;21.11;39.28;100461.26;1664619;85;21583;-75
2022/09/26 00:56:24;;;;;;;10.63;8.58;;;;;;;21.12;39.29;100458.74;1686238;83;21061;-75
2022/09/26 00:58:55;;;;;;;11.95;9.18;;;;;;;21.11;39.29;100455.73;1719153;83;21122;-74
2022/09/26 01:01:21;;;;;;;8.85;7.83;;;;;;;21.11;39.30;100461.26;1719665;82;21625;-75
2022/09/26 01:03:47;;;;;;;10.72;7.75;;;;;;;21.11;39.30;100448.81;1696613;83;21152;-74
2022/09/26 01:06:15;;;;;;;13.10;8.45;;;;;;;21.10;39.28;100442.46;1719459;82;21486;-75
2022/09/26 01:08:45;;;;;;;9.65;8.25;;;;;;;21.11;39.29;100437.75;1718864;83;21051;-74
2022/09/26 01:11:14;;;;;;;11.20;8.63;;;;;;;21.12;39.30;100450.45;1719209;82;21512;-75
2022/09/26 01:13:40;;;;;;;12.30;8.30;;;;;;;21.11;39.30;100451.01;1719383;81;21653;-75
2022/09/26 01:16:06;;;;;;;9.45;7.97;;;;;;;21.10;39.32;100451.33;1708740;83;21542;-75
2022/09/26 01:18:33;;;;;;;10.72;8.83;;;;;;;21.12;39.34;100458.74;1688487;83;21229;-75
2022/09/26 01:21:33;;;;;;;12.60;8.83;;;;;;;21.11;39.32;100448.81;1688360;83;21614;-75
2022/09/26 01:24:37;;;;;;;9.83;8.45;;;;;;;21.11;39.32;100447.43;1708310;83;21677;-75
2022/09/26 01:27:38;;;;;;;10.65;8.68;;;;;;;21.11;39.29;100447.43;1708415;83;21140;-75
2022/09/26 01:30:12;;;;;;;11.28;8.75;;;;;;;21.11;39.29;100447.43;1708120;83;21095;-75
2022/09/26 01:33:18;;;;;;;9.78;8.13;;;;;;;21.09;39.29;100440.83;1708410;83;21153;-76
2022/09/26 01:36:06;;;;;;;10.55;8.28;;;;;;;21.08;39.31;100439.23;1708116;83;21092;-75
2022/09/26 01:38:55;;;;;;;9.53;7.65;;;;;;;21.07;39.31;100445.89;1708222;83;21059;-75
2022/09/26 01:41:56;;;;;;;10.28;8.25;;;;;;;21.08;39.34;100450.86;1708370;83;21112;-76
2022/09/26 01:44:38;;;;;;;10.25;8.20;;;;;;;21.07;39.34;100456.95;1708572;83;21499;-75
2022/09/26 01:47:28;;;;;;;10.88;8.13;;;;;;;21.07;39.33;100453.38;1708312;83;21504;-76
2022/09/26 01:50:15;;;;;;;10.13;8.28;;;;;;;21.06;39.34;100447.59;1690714;83;21036;-75
2022/09/26 01:52:58;;;;;;;10.25;8.45;;;;;;;21.05;39.38;100453.70;1681276;83;21112;-76
2022/09/26 01:55:39;;;;;;;8.88;7.37;;;;;;;21.05;39.38;100444.61;1699236;83;21040;-75
2022/09/26 01:58:34;;;;;;;12.07;8.65;;;;;;;21.05;39.40;100443.23;1701337;82;21104;-75
2022/09/26 02:01:07;;;;;;;10.68;8.55;;;;;;;21.04;39.42;100433.30;1724580;81;21569;-75
2022/09/26 02:03:36;;;;;;;10.70;8.35;;;;;;;21.03;39.42;100439.40;1724622;81;21597;-76
2022/09/26 02:06:06;;;;;;;10.80;8.45;;;;;;;21.04;39.45;100440.22;1689489;83;21079;-76
2022/09/26 02:08:43;;;;;;;10.00;8.35;;;;;;;21.03;39.47;100442.16;1701526;83;21959;-74
2022/09/26 02:11:14;;;;;;;10.68;8.10;;;;;;;21.03;39.46;100438.02;1681107;83;21103;-74
2022/09/26 02:14:03;;;;;;;10.40;7.78;;;;;;;21.03;39.48;100434.44;1694122;81;21644;-75
2022/09/26 02:16:45;;;;;;;9.48;8.10;;;;;;;21.04;39.49;100436.06;1681901;83;21063;-75
2022/09/26 02:19:33;;;;;;;9.30;8.08;;;;;;;21.03;39.47;100431.10;1694166;83;21525;-75
2022/09/26 02:22:00;;;;;;;9.40;8.10;;;;;;;21.03;39.48;100428.91;1724265;81;21633;-75
2022/09/26 02:24:27;;;;;;;10.03;7.97;;;;;;;21.03;39.48;100421.98;1682176;83;21092;-75
2022/09/26 02:26:53;;;;;;;9.70;8.48;;;;;;;21.03;39.48;100426.95;1718899;82;21256;-74
2022/09/26 02:29:19;;;;;;;9.93;7.72;;;;;;;21.04;39.51;100418.09;1716086;83;21549;-74
2022/09/26 02:31:59;;;;;;;11.15;7.95;;;;;;;21.03;39.54;100413.13;1694047;83;21103;-75
2022/09/26 02:34:25;;;;;;;12.30;8.20;;;;;;;21.04;39.51;100413.94;1718742;83;21059;-75
2022/09/26 02:36:54;;;;;;;11.60;8.45;;;;;;;21.03;39.55;100417.84;1739235;82;21115;-74
2022/09/26 02:39:20;;;;;;;10.72;8.13;;;;;;;21.03;39.55;100418.66;1719107;82;21220;-74
2022/09/26 02:42:09;;;;;;;9.13;7.50;;;;;;;21.03;39.56;100420.61;1718748;82;21056;-74
2022/09/26 02:44:56;;;;;;;11.12;7.78;;;;;;;21.04;39.56;100423.63;1693229;83;21068;-74
2022/09/26 02:47:59;;;;;;;10.40;7.85;;;;;;;21.04;39.56;100429.97;1718196;81;21146;-75
2022/09/26 02:50:54;;;;;;;9.63;7.60;;;;;;;21.03;39.56;100438.02;1719124;83;21083;-75
2022/09/26 02:53:31;;;;;;;9.95;8.63;;;;;;;21.03;39.56;100437.20;1719144;82;21175;-74
2022/09/26 02:56:45;;;;;;;11.97;8.65;;;;;;;21.03;39.54;100433.87;1718743;83;21546;-74
2022/09/26 02:59:36;;;;;;;10.72;8.08;;;;;;;21.02;39.54;100425.32;1739024;82;21083;-75
2022/09/26 03:02:21;;;;;;;11.08;8.50;;;;;;;21.01;39.51;100429.22;1718994;82;21083;-75
2022/09/26 03:05:11;;;;;;;10.43;8.45;;;;;;;21.01;39.51;100431.17;1706556;82;21059;-74
2022/09/26 03:07:45;;;;;;;9.68;7.90;;;;;;;21.00;39.51;100426.23;1719546;83;21083;-75
2022/09/26 03:10:12;;;;;;;9.43;7.90;;;;;;;21.02;39.53;100439.72;1718803;82;21127;-75
2022/09/26 03:12:38;;;;;;;10.70;8.03;;;;;;;21.02;39.52;100437.77;1719289;83;21062;-74
2022/09/26 03:15:06;;;;;;;9.28;8.10;;;;;;;21.03;39.52;100430.28;1696925;82;21114;-74
2022/09/26 03:17:33;;;;;;;9.43;7.87;;;;;;;21.03;39.49;100430.28;1719307;83;20991;-75
2022/09/26 03:20:10;;;;;;;10.70;8.18;;;;;;;21.03;39.50;100424.75;1696829;83;21289;-74
2022/09/26 03:22:38;;;;;;;11.50;8.25;;;;;;;21.03;39.48;100413.69;1718402;83;21071;-75
2022/09/26 03:25:05;;;;;;;10.25;7.67;;;;;;;21.04;39.46;100412.55;1743269;82;21055;-74
2022/09/26 03:27:33;;;;;;;13.08;8.88;;;;;;;21.04;39.44;100416.70;1719189;83;21147;-74
2022/09/26 03:30:00;;;;;;;11.97;8.88;;;;;;;21.04;39.42;100411.99;1696736;83;21139;-75
2022/09/26 03:32:28;;;;;;;10.88;9.00;;;;;;;21.05;39.41;100411.42;1718940;83;21214;-74
2022/09/26 03:34:55;;;;;;;13.03;8.65;;;;;;;21.05;39.40;100404.51;1719045;82;21020;-74
2022/09/26 03:37:21;;;;;;;9.28;7.95;;;;;;;21.04;39.40;100402.87;1718916;83;21422;-74
2022/09/26 03:39:47;;;;;;;9.58;7.80;;;;;;;21.04;39.40;100411.17;1720658;82;21115;-74
2022/09/26 03:42:14;;;;;;;9.35;7.72;;;;;;;21.05;39.42;100403.13;1742733;81;21138;-74
2022/09/26 03:44:41;;;;;;;10.93;7.97;;;;;;;21.05;39.42;100407.27;1660376;85;21185;-75
2022/09/26 03:47:14;;;;;;;10.53;7.78;;;;;;;21.04;39.45;100405.08;1724357;81;21087;-74
2022/09/26 03:49:40;;;;;;;12.47;7.85;;;;;;;21.05;39.45;100407.27;1724448;81;21146;-75
2022/09/26 03:52:09;;;;;;;11.88;8.13;;;;;;;21.04;39.42;100404.26;1681889;83;21000;-74
2022/09/26 03:54:42;;;;;;;12.45;8.98;;;;;;;21.02;39.33;100404.58;1694119;82;21468;-74
2022/09/26 03:57:11;;;;;;;14.63;8.38;;;;;;;20.96;39.28;100403.94;1733200;81;21702;-75
2022/09/26 03:59:38;;;;;;;11.83;8.25;;;;;;;20.94;39.24;100403.47;1686203;83;21036;-75
2022/09/26 04:02:04;;;;;;;13.93;7.97;;;;;;;20.90;39.18;100401.12;1719976;82;21126;-74
2022/09/26 04:04:31;;;;;;;11.03;8.15;;;;;;;20.89;39.09;100405.02;1719854;82;21664;-74
2022/09/26 04:06:58;;;;;;;12.65;8.53;;;;;;;20.88;39.12;100407.53;1719318;82;21135;-74
2022/09/26 04:09:24;;;;;;;11.78;8.08;;;;;;;20.87;39.09;100399.02;1718839;82;21188;-75
2022/09/26 04:11:52;;;;;;;11.50;7.75;;;;;;;20.88;39.05;100399.23;1698784;82;21393;-75
2022/09/26 04:14:18;;;;;;;12.85;8.35;;;;;;;20.87;39.02;100394.88;1716051;82;21101;-74
2022/09/26 04:16:45;;;;;;;12.88;8.33;;;;;;;20.88;39.02;100401.19;1715749;82;21055;-75
2022/09/26 04:19:13;;;;;;;13.43;7.83;;;;;;;20.89;39.02;100401.44;1717182;82;21501;-75
2022/09/26 04:21:40;;;;;;;13.03;7.87;;;;;;;20.88;38.96;100403.39;1715731;82;21157;-75
2022/09/26 04:24:17;;;;;;;14.05;8.35;;;;;;;20.89;38.84;100403.64;1714971;82;21518;-74
2022/09/26 04:26:42;;;;;;;12.13;8.45;;;;;;;20.89;38.77;100395.34;1714566;83;21552;-74
2022/09/26 04:29:08;;;;;;;10.95;7.92;;;;;;;20.88;38.72;100397.86;1719687;81;21507;-74
2022/09/26 04:31:35;;;;;;;13.30;8.15;;;;;;;20.88;38.64;100395.66;1718085;81;21147;-76
2022/09/26 04:34:03;;;;;;;16.82;8.75;;;;;;;20.87;38.63;100390.73;1655870;83;21291;-75
2022/09/26 04:36:30;;;;;;;14.83;8.73;;;;;;;20.87;38.59;100395.44;1682554;83;21003;-75
2022/09/26 04:38:59;;;;;;;12.95;9.03;;;;;;;20.85;38.56;100381.94;1712512;82;21083;-74
2022/09/26 04:41:26;;;;;;;15.45;8.18;;;;;;;20.84;38.59;100387.22;1711629;81;21065;-75
2022/09/26 04:43:53;;;;;;;17.48;8.60;;;;;;;20.82;38.54;100388.70;1699492;82;21581;-74
2022/09/26 04:46:22;;;;;;;22.13;8.78;;;;;;;20.81;38.55;100396.17;1692924;82;21315;-75
2022/09/26 04:48:49;;;;;;;20.52;9.05;;;;;;;20.79;38.58;100392.13;1667751;83;21051;-75
2022/09/26 04:51:17;;;;;;;23.52;9.28;;;;;;;20.79;38.61;100393.52;1717010;81;21099;-76
2022/09/26 04:53:43;;;;;;;22.32;9.88;;;;;;;20.77;38.64;100395.78;1718035;81;21044;-78
2022/09/26 04:56:11;;;;;;;17.55;8.98;;;;;;;20.74;38.68;100402.78;1695171;83;21059;-75
2022/09/26 04:58:37;;;;;;;28.83;9.53;;;;;;;20.72;38.70;100394.56;1666571;84;21095;-73
2022/09/26 05:01:08;;;;;;;23.15;9.05;;;;;;;20.70;38.73;100399.63;1651869;84;21514;-76
2022/09/26 05:03:37;;;;;;;18.15;9.55;;;;;;;20.67;38.74;100397.48;1681041;82;21107;-76
2022/09/26 05:06:07;;;;;;;15.93;8.23;;;;;;;20.63;38.77;100380.75;1702523;82;21511;-78
2022/09/26 05:08:38;;;;;;;22.70;7.87;;;;;;;20.62;38.79;100372.81;1714927;82;21574;-77
2022/09/26 05:11:04;;;;;;;14.63;7.53;;;;;;;20.64;38.74;100373.28;1712280;82;21151;-78
2022/09/26 05:13:31;;;;;;;19.52;8.80;;;;;;;20.64;38.73;100367.75;1710257;81;21002;-78
2022/09/26 05:16:01;;;;;;;21.48;8.50;;;;;;;20.62;38.68;100368.09;1700820;83;21363;-78
2022/09/26 05:18:28;;;;;;;15.75;8.25;;;;;;;20.61;38.68;100370.61;1703277;82;21046;-76
2022/09/26 05:20:55;;;;;;;20.35;7.87;;;;;;;20.61;38.67;100367.84;1682568;83;21049;-78
2022/09/26 05:26:25;;;;;;;13.13;7.17;;;;;;;20.64;38.67;100375.48;1681023;84;21087;-77
2022/09/26 05:29:04;;;;;;;18.85;7.47;;;;;;;20.65;38.72;100377.11;1687914;83;21100;-77
2022/09/26 05:31:29;;;;;;;15.58;7.12;;;;;;;20.64;38.77;100387.91;1685310;82;21039;-77
2022/09/26 05:33:56;;;;;;;17.10;7.28;;;;;;;20.64;38.79;100394.02;1688989;83;21107;-77
2022/09/26 05:36:29;;;;;;;20.45;7.90;;;;;;;20.63;38.77;100398.72;1702609;82;22305;-78
2022/09/26 05:38:55;;;;;;;16.62;7.65;;;;;;;20.64;38.82;100396.20;1696473;82;21591;-78
2022/09/26 05:41:22;;;;;;;17.40;7.42;;;;;;;20.66;38.84;100395.89;1692483;82;21424;-78
2022/09/26 05:43:49;;;;;;;11.60;7.47;;;;;;;20.66;38.80;100391.75;1696170;81;21198;-77
2022/09/26 05:46:16;;;;;;;9.58;5.62;;;;;;;20.67;38.75;100404.41;1695641;82;21099;-76
2022/09/26 05:48:42;;;;;;;26.50;6.97;;;;;;;20.65;38.59;100401.17;1695902;82;21111;-78
2022/09/26 05:51:14;;;;;;;19.35;6.55;;;;;;;20.60;38.51;100407.67;1701647;81;21697;-78
2022/09/26 05:53:43;;;;;;;58.28;8.28;;;;;;;20.57;38.65;100406.95;1696202;82;21072;-77
2022/09/26 05:56:10;;;;;;;48.33;9.55;;;;;;;20.56;38.56;100400.36;1695597;83;22334;-73
2022/09/26 05:58:38;;;;;;;34.58;8.05;;;;;;;20.52;38.51;100390.54;1707074;81;21056;-75
2022/09/26 06:01:11;;;;;;;80.95;9.15;;;;;;;20.50;38.68;100392.80;1710705;82;21174;-72
2022/09/26 06:03:40;;;;;;;40.30;7.58;;;;;;;20.48;38.74;100386.23;1711781;82;21091;-78
2022/09/26 06:06:11;;;;;;;42.78;8.20;;;;;;;20.50;38.81;100392.80;1709967;81;21032;-75
2022/09/26 06:08:38;;;;;;;34.27;8.25;;;;;;;20.48;38.81;100392.33;1715002;82;21039;-76
2022/09/26 06:11:12;;;;;;;36.25;7.33;;;;;;;20.51;39.00;100388.91;1714160;82;21072;-76
2022/09/26 06:13:40;;;;;;;24.90;7.42;;;;;;;20.55;39.02;100380.20;1708043;81;21260;-74
2022/09/26 06:16:17;;;;;;;19.23;6.17;;;;;;;20.59;39.13;100378.97;1709289;82;21012;-82
2022/09/26 06:18:43;;;;;;;20.85;6.15;;;;;;;20.62;39.01;100376.95;1711062;81;21155;-84
2022/09/26 06:21:12;;;;;;;34.88;6.28;;;;;;;20.64;38.93;100379.63;1715334;82;21047;-82
2022/09/26 06:23:39;;;;;;;24.85;6.85;;;;;;;20.68;38.91;100386.12;1714988;81;21443;-79
2022/09/26 06:26:13;;;;;;;17.60;6.35;;;;;;;20.70;38.88;100382.47;1711692;82;21962;-83
2022/09/26 06:28:43;;;;;;;22.55;6.55;;;;;;;20.73;38.86;100397.58;1710214;81;21175;-81
2022/09/26 06:31:12;;;;;;;33.02;7.55;;;;;;;20.75;38.93;100393.93;1700517;83;21288;-80
2022/09/26 06:33:39;;;;;;;20.20;6.28;;;;;;;20.75;39.14;100398.08;1710246;82;21110;-81
2022/09/26 06:36:08;;;;;;;25.32;6.70;;;;;;;20.76;39.18;100402.44;1683804;83;37955;-80
2022/09/26 06:38:35;;;;;;;20.75;7.20;;;;;;;20.76;39.18;100398.30;1687709;82;21142;-75
2022/09/26 06:41:01;;;;;;;22.05;7.80;;;;;;;20.76;39.18;100401.88;1689740;82;21665;-80
2022/09/26 06:43:28;;;;;;;28.75;7.22;;;;;;;20.77;39.22;100397.16;1717138;82;22083;-80
2022/09/26 06:45:54;;;;;;;29.63;7.45;;;;;;;20.78;39.26;100393.27;1692732;82;21115;-83
2022/09/26 06:48:24;;;;;;;23.02;7.45;;;;;;;20.79;39.31;100390.75;1712253;82;21143;-76
2022/09/26 06:50:52;;;;;;;32.10;8.10;;;;;;;20.79;39.50;100397.66;1707749;82;21866;-79
2022/09/26 06:53:18;;;;;;;62.53;9.23;;;;;;;20.79;39.62;100395.68;1709120;82;22290;-77
2022/09/26 06:55:44;;;;;;;32.35;7.62;;;;;;;20.81;39.81;100388.45;1710019;81;21570;-79
2022/09/26 06:58:11;;;;;;;35.50;6.92;;;;;;;20.82;39.98;100383.98;1710934;81;21076;-74
2022/09/26 07:00:38;;;;;;;64.92;8.20;;;;;;;20.85;40.20;100391.61;1725046;81;21079;-72
2022/09/26 07:03:04;;;;;;;50.30;7.53;;;;;;;20.86;40.33;100391.05;1732209;81;21174;-73
2022/09/26 07:05:31;;;;;;;46.92;7.37;;;;;;;20.87;40.33;100382.44;1726974;81;21088;-79
2022/09/26 07:07:57;;;;;;;41.33;7.25;;;;;;;20.88;40.26;100377.69;1729080;81;21634;-76
2022/09/26 07:10:24;;;;;;;34.58;6.95;;;;;;;20.89;40.25;100382.08;1725225;81;21076;-75
2022/09/26 07:12:51;;;;;;;47.05;7.60;;;;;;;20.89;40.21;100390.38;1725147;81;21669;-76
2022/09/26 07:15:19;;;;;;;22.75;6.70;;;;;;;20.90;40.29;100397.54;1721386;81;21106;-77
2022/09/26 07:17:47;;;;;;;29.40;7.25;;;;;;;20.91;40.32;100393.08;1683758;83;21099;-76
2022/09/26 07:20:16;;;;;;;28.83;7.03;;;;;;;20.93;40.37;100392.72;1671441;82;21696;-76
2022/09/26 07:22:43;;;;;;;31.82;7.25;;;;;;;20.96;40.44;100394.85;1722697;81;21068;-77
2022/09/26 07:25:10;;;;;;;24.80;7.58;;;;;;;20.96;40.42;100392.09;1716283;81;21185;-78
2022/09/26 07:27:37;;;;;;;29.95;6.95;;;;;;;20.97;40.50;100392.30;1718676;82;21095;-74
2022/09/26 07:30:05;;;;;;;32.83;6.62;;;;;;;20.97;40.51;100391.73;1715667;81;21119;-74
2022/09/26 07:32:31;;;;;;;19.05;6.80;;;;;;;20.99;40.45;100396.95;1698247;82;21131;-75
2022/09/26 07:34:58;;;;;;;27.52;7.28;;;;;;;21.01;40.52;100396.59;1700574;82;21510;-76
2022/09/26 07:37:25;;;;;;;23.27;6.47;;;;;;;21.01;40.51;100387.73;1657919;82;21400;-75
2022/09/26 07:39:52;;;;;;;23.35;7.35;;;;;;;21.03;40.46;100385.47;1675988;83;21231;-74
2022/09/26 07:42:18;;;;;;;20.85;6.85;;;;;;;21.03;40.35;100377.17;1711820;81;21293;-75
2022/09/26 07:44:45;;;;;;;24.82;7.78;;;;;;;21.06;40.34;100375.69;1715402;81;21110;-78
2022/09/26 07:50:15;;;;;;;31.73;6.97;;;;;;;21.05;40.49;100364.41;1720951;81;21028;-77
2022/09/26 07:52:43;;;;;;;37.67;8.23;;;;;;;21.07;40.83;100362.10;1719972;81;22025;-78
2022/09/26 07:55:11;;;;;;;38.50;7.83;;;;;;;21.09;41.20;100367.53;1715405;82;21026;-78
2022/09/26 07:57:38;;;;;;;47.55;8.18;;;;;;;21.13;41.49;100367.14;1722992;81;20947;-77
2022/09/26 08:00:08;;;;;;;80.85;9.95;;;;;;;21.15;41.44;100370.97;1713754;81;21545;-78
2022/09/26 08:02:34;;;;;;;54.83;9.00;;;;;;;21.16;41.67;100357.38;1722212;81;21095;-75
2022/09/26 08:05:07;;;;;;;40.35;8.13;;;;;;;21.19;41.82;100354.75;1682116;83;21253;-75
2022/09/26 08:07:34;;;;;;;60.00;10.85;;;;;;;21.23;41.92;100354.89;1673955;82;22349;-74
2022/09/26 08:10:01;;;;;;;40.75;7.30;;;;;;;21.21;41.86;100347.52;1673615;84;20984;-73
2022/09/26 08:12:28;;;;;;;25.23;7.20;;;;;;;21.23;41.90;100343.83;1661890;84;21107;-75
2022/09/26 08:14:54;;;;;;;23.70;7.47;;;;;;;21.22;41.76;100338.05;1675541;83;21792;-72
2022/09/26 08:17:21;;;;;;;39.05;7.37;;;;;;;21.22;41.78;100339.44;1684340;83;21106;-73
2022/09/26 08:19:48;;;;;;;30.97;7.83;;;;;;;21.22;41.68;100342.20;1676250;82;22105;-74
2022/09/26 08:22:14;;;;;;;18.27;5.72;;;;;;;21.21;41.59;100335.88;1691800;83;21055;-74
2022/09/26 08:24:43;;;;;;;25.30;7.72;;;;;;;21.21;41.57;100335.07;1677091;82;21103;-79
2022/09/26 08:27:09;;;;;;;16.93;5.78;;;;;;;21.22;41.45;100329.75;1674613;82;21094;-82
2022/09/26 08:29:35;;;;;;;22.58;7.25;;;;;;;21.22;41.24;100321.45;1666364;85;21135;-81
2022/09/26 08:32:02;;;;;;;21.12;6.80;;;;;;;21.23;41.22;100317.55;1659197;85;21135;-82
2022/09/26 08:34:30;;;;;;;16.62;5.62;;;;;;;21.23;41.09;100314.22;1659322;84;21095;-84
2022/09/26 08:36:57;;;;;;;20.92;6.22;;;;;;;21.23;40.92;100311.45;1656565;85;21080;-80
2022/09/26 08:39:24;;;;;;;26.70;6.58;;;;;;;21.23;40.88;100316.16;1665908;85;21084;-81
2022/09/26 08:42:11;;;;;;;25.10;6.30;;;;;;;21.24;40.68;100312.27;1678140;83;21164;-81
2022/09/26 08:46:13;;;;;;;29.87;7.00;;;;;;;21.23;40.98;100302.33;1667005;83;21090;-75
2022/09/26 08:47:43;;;;;;;30.55;7.08;;;;;;;21.24;41.21;100305.34;1666890;84;21082;-75
2022/09/26 08:50:33;;;;;;;36.83;8.28;;;;;;;21.27;41.26;100304.67;1666021;83;21068;-73
2022/09/26 08:53:07;;;;;;;39.35;7.97;;;;;;;21.28;41.50;100302.15;1664338;83;21002;-75
2022/09/26 08:55:37;;;;;;;42.17;8.20;;;;;;;21.29;41.92;100309.31;1646338;85;21178;-74
2022/09/26 08:58:25;;;;;;;34.90;8.03;;;;;;;21.29;42.53;100307.36;1681299;82;21139;-72
2022/09/26 09:03:37;;;;;;;21.23;7.12;;;;;;;21.34;42.98;100298.05;1676235;83;21622;-72
2022/09/26 09:06:12;;;;;;;23.05;7.20;;;;;;;21.35;42.78;100295.50;1659310;85;21190;-73
2022/09/26 09:08:48;;;;;;;24.98;7.20;;;;;;;21.34;42.87;100293.91;1718023;81;21086;-74
2022/09/26 09:11:36;;;;;;;28.00;6.72;;;;;;;21.33;42.45;100282.02;1711512;81;21064;-72
2022/09/26 09:14:23;;;;;;;21.35;6.12;;;;;;;21.33;42.33;100277.06;1705053;82;21574;-73
2022/09/26 09:17:01;;;;;;;20.77;6.08;;;;;;;21.33;42.62;100277.06;1719780;81;21147;-72
2022/09/26 09:19:51;;;;;;;19.77;6.40;;;;;;;21.32;42.68;100275.43;1631313;85;21757;-72
2022/09/26 09:22:45;;;;;;;31.48;7.15;;;;;;;21.32;42.88;100282.34;1660819;84;21884;-75
2022/09/26 09:25:40;;;;;;;20.95;6.10;;;;;;;21.31;43.10;100276.00;1654919;85;21099;-72
2022/09/26 09:28:32;;;;;;;22.02;6.62;;;;;;;21.30;43.13;100293.73;1674587;83;21163;-75
2022/09/26 09:31:05;;;;;;;16.60;6.83;;;;;;;21.29;43.16;100300.44;1673405;82;21091;-74
2022/09/26 09:33:45;;;;;;;17.85;6.95;;;;;;;21.29;43.00;100294.09;1654199;84;21757;-72
2022/09/26 09:36:14;;;;;;;14.53;6.35;;;;;;;21.31;42.89;100289.83;1680861;81;21176;-75
2022/09/26 09:38:44;;;;;;;19.52;6.47;;;;;;;21.32;42.86;100280.96;1648345;85;21096;-72
2022/09/26 09:41:13;;;;;;;17.00;6.53;;;;;;;21.34;42.80;100282.84;1682895;83;21077;-74
2022/09/26 09:43:48;;;;;;;16.10;5.90;;;;;;;21.35;42.83;100266.45;1675048;84;21136;-74
2022/09/26 09:46:27;;;;;;;19.87;6.22;;;;;;;21.36;42.69;100258.39;1673630;83;21131;-73
2022/09/26 09:49:19;;;;;;;18.15;5.87;;;;;;;21.36;42.70;100258.39;1635098;86;22611;-75
2022/09/26 09:52:09;;;;;;;18.80;5.47;;;;;;;21.37;42.57;100260.84;1674118;83;21127;-72
2022/09/26 09:55:11;;;;;;;20.03;5.07;;;;;;;21.39;42.78;100266.02;1665663;84;21365;-73
2022/09/26 09:58:21;;;;;;;24.87;4.95;;;;;;;21.47;43.05;100256.88;1660766;83;21689;-74
2022/09/26 10:00:57;;;;;;;20.95;4.75;;;;;;;21.51;43.05;100250.89;1662594;84;21132;-72
2022/09/26 10:03:57;;;;;;;18.27;4.25;;;;;;;21.55;42.93;100242.72;1638614;86;22252;-73
2022/09/26 10:06:25;;;;;;;23.92;4.25;;;;;;;21.59;42.80;100250.02;1638905;85;21250;-75
2022/09/26 10:09:01;;;;;;;13.18;3.02;;;;;;;21.62;42.54;100245.19;1631270;85;21144;-74
2022/09/26 10:11:40;;;;;;;21.55;3.83;;;;;;;21.62;42.41;100248.52;1639998;85;21094;-72
2022/09/26 10:14:12;;;;;;;11.78;4.17;;;;;;;21.62;42.31;100250.72;1657233;84;21430;-74
2022/09/26 10:17:13;;;;;;;17.48;3.90;;;;;;;21.60;42.25;100260.52;1661576;85;21160;-74
2022/09/26 10:19:41;;;;;;;17.05;3.87;;;;;;;21.60;42.10;100257.75;1668052;84;21162;-74
2022/09/26 10:22:24;;;;;;;11.20;4.10;;;;;;;21.58;41.75;100247.00;1664042;85;21151;-72
2022/09/26 10:24:49;;;;;;;12.70;4.90;;;;;;;21.58;41.50;100242.04;1633723;87;21745;-75
2022/09/26 10:27:25;;;;;;;16.52;5.10;;;;;;;21.58;41.43;100241.47;1647026;85;21055;-73
2022/09/26 10:29:59;;;;;;;9.70;3.70;;;;;;;21.57;41.51;100232.92;1664295;84;21220;-73
2022/09/26 10:32:27;;;;;;;7.75;3.52;;;;;;;21.57;41.35;100237.64;1652803;84;21092;-73
2022/09/26 10:35:18;;;;;;;8.90;3.67;;;;;;;21.56;41.11;100231.86;1659251;84;21095;-73
2022/09/26 10:37:50;;;;;;;;;;;;;;;21.56;40.90;100237.41;1617017;86;21408;-72
2022/09/26 10:40:47;;;;;;;7.17;2.98;;;;;;;21.54;40.51;100244.68;1653458;84;20328;-73
2022/09/26 10:43:33;;;;;;;13.28;4.03;;;;;;;21.54;40.54;100242.48;1656730;84;21412;-73
2022/09/26 10:46:10;;;;;;;10.80;6.28;;;;;;;21.53;40.57;100232.55;1651707;85;21088;-73
2022/09/26 10:48:50;;;;;;;10.32;6.30;;;;;;;21.52;40.56;100237.84;1655232;85;21108;-74
2022/09/26 10:51:36;;;;;;;14.35;5.25;;;;;;;21.51;40.53;100227.94;1647277;85;21117;-74
2022/09/26 10:54:23;;;;;;;15.00;4.12;;;;;;;21.49;40.60;100231.03;1646074;84;21273;-73
2022/09/26 10:56:53;;;;;;;27.65;4.53;;;;;;;21.56;41.11;100221.61;1632570;86;21105;-74
2022/09/26 10:59:26;;;;;;;29.25;4.00;;;;;;;21.66;41.06;100225.93;1628232;84;21067;-73
2022/09/26 11:01:57;;;;;;;31.10;4.55;;;;;;;21.73;40.80;100216.50;1712650;81;21119;-75
2022/09/26 11:07:23;;;;;;;17.10;3.62;;;;;;;21.77;40.53;100218.82;1711505;82;21024;-75
2022/09/26 11:10:00;;;;;;;14.45;3.62;;;;;;;21.75;40.55;100218.36;1682365;82;22077;-76
2022/09/26 11:12:30;;;;;;;14.03;3.67;;;;;;;21.73;40.56;100218.70;1715876;81;21041;-74
2022/09/26 11:15:09;;;;;;;13.18;3.60;;;;;;;21.72;40.59;100213.52;1721288;82;21131;-74
2022/09/26 11:17:47;;;;;;;12.20;3.70;;;;;;;21.72;40.73;100215.71;1716202;82;21067;-74
2022/09/26 11:20:32;;;;;;;12.90;3.30;;;;;;;21.71;40.73;100203.02;1715770;82;21065;-73
2022/09/26 11:23:25;;;;;;;14.93;3.75;;;;;;;21.71;40.75;100207.73;1677859;83;21074;-79
2022/09/26 11:26:07;;;;;;;12.90;3.37;;;;;;;21.69;40.77;100208.06;1699106;82;21004;-75
2022/09/26 11:28:52;;;;;;;17.07;3.75;;;;;;;21.67;40.82;100204.03;1724562;81;21099;-75
2022/09/26 11:31:25;;;;;;;9.88;3.12;;;;;;;21.64;40.90;100198.58;1713668;82;21179;-79
2022/09/26 11:33:53;;;;;;;8.75;3.30;;;;;;;21.64;40.81;100192.25;1715432;82;21597;-76
2022/09/26 11:36:44;;;;;;;7.42;3.05;;;;;;;21.64;40.88;100197.19;1726767;82;21961;-75
2022/09/26 11:39:26;;;;;;;5.67;3.15;;;;;;;21.64;40.88;100188.89;1717954;82;21056;-76
2022/09/26 11:42:29;;;;;;;9.43;2.77;;;;;;;21.64;40.87;100190.27;1719942;82;21539;-76
2022/09/26 11:45:00;;;;;;;6.50;3.17;;;;;;;21.63;40.93;100186.48;1709689;82;21618;-76
2022/09/26 11:47:51;;;;;;;6.70;3.65;;;;;;;21.62;40.91;100183.47;1686401;83;21118;-77
2022/09/26 11:50:45;;;;;;;13.35;3.58;;;;;;;21.62;40.87;100183.47;1709967;81;21165;-74
2022/09/26 11:53:34;;;;;;;10.82;3.62;;;;;;;21.60;40.91;100176.88;1660816;82;21388;-75
2022/09/26 11:56:28;;;;;;;16.57;3.20;;;;;;;21.59;41.28;100173.08;1709549;82;21206;-77
2022/09/26 11:59:09;;;;;;;19.12;3.45;;;;;;;21.66;41.46;100174.72;1680471;81;21105;-76
2022/09/26 12:01:53;;;;;;;18.92;4.08;;;;;;;21.72;41.67;100167.27;1645361;84;21868;-76